Time;durP1;ratioP1;P1;durP2;ratioP2;P2;SDS_P1;SDS_P2;PMS_P1;PMS_P2;Temp;Humidity;BMP_temperature;BMP_pressure;BME280_temperature;BME280_humidity;BME280_pressure;Samples;Min_cycle;Max_cycle;Signal;HPM_P1;HPM_P2
2023/05/23 00:01:23;;;;;;;39.10;22.65;;;;;;;15.39;100.00;99364.94;5103027;28;20286;-63
2023/05/23 00:03:52;;;;;;;38.70;22.30;;;;;;;15.36;100.00;99368.19;5080458;28;20067;-63
2023/05/23 00:06:21;;;;;;;40.40;21.35;;;;;;;15.26;100.00;99367.09;5097404;28;20040;-63
2023/05/23 00:08:49;;;;;;;36.63;22.48;;;;;;;15.14;100.00;99366.56;5105354;28;20399;-64
2023/05/23 00:11:17;;;;;;;38.25;21.70;;;;;;;15.16;100.00;99361.69;5096207;28;20117;-63
2023/05/23 00:13:44;;;;;;;33.38;20.10;;;;;;;15.17;100.00;99367.91;5104081;28;20103;-63
2023/05/23 00:16:11;;;;;;;37.78;21.10;;;;;;;15.10;100.00;99370.84;5104379;28;20063;-63
2023/05/23 00:18:41;;;;;;;39.10;22.50;;;;;;;15.05;100.00;99368.16;5101939;28;20553;-63
2023/05/23 00:21:08;;;;;;;36.47;20.13;;;;;;;15.00;100.00;99373.56;5096822;28;20044;-63
2023/05/23 00:23:35;;;;;;;38.15;21.00;;;;;;;14.99;100.00;99370.03;5100320;28;20050;-63
2023/05/23 00:26:04;;;;;;;36.88;21.30;;;;;;;14.94;100.00;99374.63;5101120;28;20059;-63
2023/05/23 00:28:31;;;;;;;37.25;21.05;;;;;;;14.94;100.00;99370.03;5095431;28;20044;-62
2023/05/23 00:30:58;;;;;;;32.45;19.70;;;;;;;14.88;100.00;99361.13;5101053;28;20047;-62
2023/05/23 00:33:25;;;;;;;35.58;20.38;;;;;;;14.75;100.00;99358.97;5103918;28;20494;-62
2023/05/23 00:35:52;;;;;;;37.58;20.52;;;;;;;14.70;100.00;99364.31;5083737;28;20524;-63
2023/05/23 00:38:19;;;;;;;36.58;20.90;;;;;;;14.66;100.00;99371.34;5099377;28;20093;-62
2023/05/23 00:40:47;;;;;;;34.95;21.10;;;;;;;14.69;100.00;99370.00;5079765;28;20136;-63
2023/05/23 00:43:15;;;;;;;35.05;20.90;;;;;;;14.58;100.00;99361.88;5082124;28;20048;-63
2023/05/23 00:45:42;;;;;;;32.50;20.25;;;;;;;14.57;100.00;99365.63;5085637;28;20060;-63
2023/05/23 00:48:10;;;;;;;33.90;20.02;;;;;;;14.52;100.00;99375.56;5101113;28;20202;-63
2023/05/23 00:50:37;;;;;;;33.30;19.83;;;;;;;14.46;100.00;99375.56;5093749;28;20044;-63
2023/05/23 00:53:05;;;;;;;36.50;20.60;;;;;;;14.52;100.00;99367.47;5079825;28;20044;-63
2023/05/23 00:55:32;;;;;;;36.67;21.83;;;;;;;14.52;100.00;99372.88;5081017;28;20512;-63
2023/05/23 00:57:59;;;;;;;37.83;21.45;;;;;;;14.49;100.00;99384.19;5086263;28;20040;-63
2023/05/23 01:00:27;;;;;;;37.25;22.70;;;;;;;14.50;100.00;99380.41;5100459;28;20120;-63
2023/05/23 01:02:55;;;;;;;35.20;22.23;;;;;;;14.45;100.00;99379.34;5098680;28;20146;-62
2023/05/23 01:05:23;;;;;;;34.28;22.20;;;;;;;14.49;100.00;99379.59;5097876;28;20131;-63
2023/05/23 01:07:50;;;;;;;35.75;22.13;;;;;;;14.42;100.00;99385.22;5102127;28;20521;-63
2023/05/23 01:10:19;;;;;;;38.65;22.80;;;;;;;14.46;100.00;99380.94;5104606;28;20055;-63
2023/05/23 01:12:51;;;;;;;37.83;22.58;;;;;;;14.46;100.00;99388.22;5086023;28;20084;-62
2023/05/23 01:15:19;;;;;;;38.45;23.63;;;;;;;14.46;100.00;99397.13;5082163;28;20036;-62
2023/05/23 01:17:50;;;;;;;35.13;23.55;;;;;;;14.49;100.00;99401.19;5100748;28;20047;-62
2023/05/23 01:20:21;;;;;;;40.47;23.63;;;;;;;14.42;100.00;99400.59;5081547;28;20048;-62
2023/05/23 01:23:11;;;;;;;36.00;23.73;;;;;;;14.42;100.00;99395.22;5100765;28;20090;-63
2023/05/23 01:25:58;;;;;;;38.33;23.33;;;;;;;14.43;100.00;99396.84;5098485;28;20054;-63
2023/05/23 01:28:27;;;;;;;38.28;20.92;;;;;;;14.45;100.00;99394.69;5099616;28;20044;-63
2023/05/23 01:30:57;;;;;;;33.55;21.38;;;;;;;14.37;100.00;99397.91;5096164;28;20047;-62
2023/05/23 01:33:24;;;;;;;37.00;20.80;;;;;;;14.36;100.00;99391.69;5087441;28;20074;-63
2023/05/23 01:35:51;;;;;;;34.92;21.60;;;;;;;14.39;100.00;99384.97;5099500;28;20051;-62
2023/05/23 01:38:18;;;;;;;32.67;20.17;;;;;;;14.34;100.00;99388.44;5074904;28;20036;-63
2023/05/23 01:40:45;;;;;;;32.28;19.88;;;;;;;14.37;100.00;99392.50;5101657;28;20036;-63
2023/05/23 01:43:12;;;;;;;30.90;20.20;;;;;;;14.28;100.00;99391.38;5081968;28;20398;-62
2023/05/23 01:45:40;;;;;;;35.10;21.42;;;;;;;14.26;100.00;99401.63;5100430;28;20315;-63
2023/05/23 01:48:07;;;;;;;35.05;22.42;;;;;;;14.19;100.00;99399.16;5097481;28;20047;-63
2023/05/23 01:50:34;;;;;;;36.75;24.10;;;;;;;14.15;100.00;99390.81;5101715;28;20124;-62
2023/05/23 01:53:03;;;;;;;37.50;24.65;;;;;;;14.05;100.00;99398.00;5095726;28;20048;-63
2023/05/23 01:55:31;;;;;;;38.25;25.88;;;;;;;14.02;100.00;99396.63;5080430;28;20139;-63
2023/05/23 01:57:58;;;;;;;39.53;25.58;;;;;;;14.02;100.00;99391.25;5097272;28;20498;-63
2023/05/23 02:00:25;;;;;;;41.40;24.73;;;;;;;13.99;100.00;99395.28;5098677;28;20108;-62
2023/05/23 02:02:53;;;;;;;40.25;24.58;;;;;;;13.91;100.00;99395.78;5087883;28;20496;-62
2023/05/23 02:05:20;;;;;;;43.50;23.25;;;;;;;13.83;100.00;99398.97;5079773;28;20123;-62
2023/05/23 02:07:47;;;;;;;37.65;23.25;;;;;;;13.84;100.00;99402.47;5084340;28;20097;-62
2023/05/23 02:10:17;;;;;;;29.90;19.48;;;;;;;13.83;100.00;99401.66;5079461;28;20055;-62
2023/05/23 02:12:44;;;;;;;35.72;21.08;;;;;;;13.71;100.00;99401.03;5094705;28;20148;-62
2023/05/23 02:15:14;;;;;;;29.48;19.35;;;;;;;13.66;100.00;99398.31;5079472;28;20168;-62
2023/05/23 02:17:41;;;;;;;28.98;18.20;;;;;;;13.65;100.00;99394.78;5081086;28;20048;-62
2023/05/23 02:20:11;;;;;;;27.00;16.08;;;;;;;13.69;100.00;99397.78;5098213;28;20155;-62
2023/05/23 02:22:38;;;;;;;22.67;15.53;;;;;;;13.63;100.00;99406.88;5079701;28;20092;-63
2023/05/23 02:25:07;;;;;;;26.25;16.40;;;;;;;13.68;100.00;99401.53;5082584;28;20063;-62
2023/05/23 02:27:34;;;;;;;25.40;16.02;;;;;;;13.56;100.00;99424.06;5075692;28;20036;-62
2023/05/23 02:30:01;;;;;;;26.60;15.13;;;;;;;13.57;100.00;99417.63;5081184;28;20993;-62
2023/05/23 02:32:29;;;;;;;25.30;15.50;;;;;;;13.53;100.00;99424.59;5082101;28;20222;-61
2023/05/23 02:34:57;;;;;;;31.00;16.45;;;;;;;13.51;100.00;99413.28;5093176;28;20407;-62
2023/05/23 02:37:25;;;;;;;26.60;17.23;;;;;;;13.54;100.00;99420.81;5079904;28;20036;-61
2023/05/23 02:39:53;;;;;;;27.45;18.10;;;;;;;13.57;100.00;99423.00;5079368;28;20556;-64
2023/05/23 02:42:21;;;;;;;29.50;18.15;;;;;;;13.59;100.00;99420.88;5079092;28;20040;-63
2023/05/23 02:44:49;;;;;;;30.15;19.35;;;;;;;13.67;100.00;99434.94;5077670;28;20413;-63
2023/05/23 02:47:16;;;;;;;34.58;19.95;;;;;;;13.69;100.00;99430.09;5096774;28;20178;-63
2023/05/23 02:49:43;;;;;;;34.35;19.50;;;;;;;13.77;100.00;99429.63;5103796;28;20048;-63
2023/05/23 02:52:10;;;;;;;32.35;19.33;;;;;;;13.73;100.00;99425.84;5061447;28;20039;-63
2023/05/23 02:54:38;;;;;;;30.70;18.60;;;;;;;13.77;100.00;99435.81;5070071;28;20137;-63
2023/05/23 02:57:06;;;;;;;29.77;18.55;;;;;;;13.72;100.00;99438.47;5101203;28;20115;-63
2023/05/23 02:59:36;;;;;;;;;;;;;;;13.76;100.00;99430.69;5079747;28;20040;-63
2023/05/23 03:02:03;;;;;;;25.25;13.80;;;;;;;13.84;100.00;99416.75;5089864;28;19927;-62
2023/05/23 03:04:31;;;;;;;20.10;14.30;;;;;;;13.87;100.00;99429.69;5080937;28;20478;-63
2023/05/23 03:06:58;;;;;;;23.95;13.88;;;;;;;13.82;100.00;99432.34;5073476;28;20428;-62
2023/05/23 03:09:25;;;;;;;23.13;12.75;;;;;;;13.88;100.00;99433.19;5091635;28;20129;-62
2023/05/23 03:11:54;;;;;;;20.60;13.32;;;;;;;13.91;100.00;99433.50;5106622;28;20118;-63
2023/05/23 03:14:21;;;;;;;21.45;13.65;;;;;;;13.88;100.00;99434.03;5105057;28;20035;-63
2023/05/23 03:16:51;;;;;;;27.52;16.42;;;;;;;13.89;100.00;99437.53;5081885;28;20562;-63
2023/05/23 03:19:18;;;;;;;37.28;21.83;;;;;;;13.97;100.00;99437.84;5110105;28;20047;-62
2023/05/23 03:21:46;;;;;;;36.05;22.02;;;;;;;13.95;100.00;99434.63;5106568;28;20585;-62
2023/05/23 03:24:13;;;;;;;37.30;21.35;;;;;;;13.86;100.00;99432.66;5104237;28;20061;-62
2023/05/23 03:26:40;;;;;;;36.97;22.40;;;;;;;13.93;100.00;99438.63;5108628;28;20126;-63
2023/05/23 03:29:09;;;;;;;39.08;22.63;;;;;;;13.80;100.00;99426.41;5100686;28;20048;-62
2023/05/23 03:31:36;;;;;;;37.80;23.00;;;;;;;13.85;100.00;99431.81;5096798;28;20032;-63
2023/05/23 03:34:04;;;;;;;39.58;23.40;;;;;;;13.78;100.00;99428.56;5100119;28;20509;-63
2023/05/23 03:36:32;;;;;;;41.92;24.98;;;;;;;13.74;100.00;99433.63;5098961;28;20406;-63
2023/05/23 03:38:59;;;;;;;39.60;23.83;;;;;;;13.77;100.00;99437.69;5099339;28;20275;-63
2023/05/23 03:41:26;;;;;;;39.25;22.33;;;;;;;13.79;100.00;99446.34;5101256;28;20063;-63
2023/05/23 03:43:54;;;;;;;36.88;21.90;;;;;;;13.82;100.00;99445.81;5081124;28;20054;-63
2023/05/23 03:46:23;;;;;;;33.50;21.80;;;;;;;13.79;100.00;99457.13;5103710;28;20118;-62
2023/05/23 03:48:50;;;;;;;34.85;21.77;;;;;;;13.73;100.00;99452.78;5082995;28;20132;-62
2023/05/23 03:51:17;;;;;;;35.88;23.02;;;;;;;13.76;100.00;99458.44;5080897;28;20470;-62
2023/05/23 03:53:44;;;;;;;32.53;21.75;;;;;;;13.78;100.00;99477.06;5089104;28;20044;-62
2023/05/23 03:56:11;;;;;;;34.92;24.35;;;;;;;13.67;100.00;99469.94;5098517;28;20036;-62
2023/05/23 03:58:38;;;;;;;37.05;23.40;;;;;;;13.66;100.00;99479.09;5096802;28;20097;-62
2023/05/23 04:01:11;;;;;;;37.45;26.10;;;;;;;13.63;100.00;99468.81;5078548;28;20036;-62
2023/05/23 04:03:39;;;;;;;33.28;23.73;;;;;;;13.50;100.00;99473.56;5106086;28;20040;-62
2023/05/23 04:06:07;;;;;;;29.38;22.75;;;;;;;13.47;100.00;99482.16;5081921;28;20144;-63
2023/05/23 04:08:37;;;;;;;32.03;22.48;;;;;;;13.56;100.00;99480.63;5086837;28;20063;-63
2023/05/23 04:11:04;;;;;;;27.40;19.60;;;;;;;13.46;100.00;99488.63;5082189;28;20079;-62
2023/05/23 04:13:35;;;;;;;15.63;11.40;;;;;;;13.46;100.00;99475.16;5087823;28;20067;-62
2023/05/23 04:16:04;;;;;;;19.77;13.45;;;;;;;13.44;100.00;99482.66;5081497;28;20047;-62
2023/05/23 04:18:33;;;;;;;15.73;10.63;;;;;;;13.37;100.00;99482.88;5079905;28;20481;-62
2023/05/23 04:21:01;;;;;;;18.38;11.63;;;;;;;13.35;100.00;99494.97;5085051;28;20032;-62
2023/05/23 04:23:29;;;;;;;16.35;12.23;;;;;;;13.47;100.00;99484.84;5086614;28;20079;-62
2023/05/23 04:26:04;;;;;;;17.48;11.85;;;;;;;13.37;100.00;99488.25;5094795;28;20580;-62
2023/05/23 04:28:38;;;;;;;16.33;11.05;;;;;;;13.44;100.00;99500.72;5098402;28;20148;-63
2023/05/23 04:31:17;;;;;;;19.15;13.25;;;;;;;13.48;100.00;99499.94;5084397;28;20422;-62
2023/05/23 04:33:45;;;;;;;22.00;12.43;;;;;;;13.51;100.00;99499.44;5084166;28;20152;-62
2023/05/23 04:36:15;;;;;;;21.33;15.13;;;;;;;13.47;100.00;99498.31;5066406;28;20052;-62
2023/05/23 04:38:48;;;;;;;19.15;14.05;;;;;;;13.45;100.00;99491.56;5104723;28;20043;-62
2023/05/23 04:41:16;;;;;;;20.45;14.80;;;;;;;13.50;100.00;99491.59;5090363;28;20035;-63
2023/05/23 04:44:04;;;;;;;23.15;15.75;;;;;;;13.52;100.00;99486.78;5097107;28;20044;-62
2023/05/23 04:46:58;;;;;;;22.80;15.13;;;;;;;13.66;100.00;99495.25;5093270;28;20124;-62
2023/05/23 04:49:41;;;;;;;21.15;15.32;;;;;;;13.61;100.00;99492.53;5083225;28;20096;-62
2023/05/23 04:52:10;;;;;;;19.35;13.55;;;;;;;13.63;100.00;99501.13;5095984;27;20082;-62
2023/05/23 04:54:43;;;;;;;19.80;13.95;;;;;;;13.56;100.00;99507.56;5084223;28;20040;-63
2023/05/23 04:57:11;;;;;;;19.15;13.15;;;;;;;13.53;100.00;99501.88;5085316;28;20031;-63
2023/05/23 04:59:38;;;;;;;18.92;12.43;;;;;;;13.55;100.00;99505.94;5081605;28;20098;-62
2023/05/23 05:02:06;;;;;;;21.45;12.98;;;;;;;13.61;100.00;99514.06;5083992;28;20043;-64
2023/05/23 05:04:34;;;;;;;16.90;12.73;;;;;;;13.54;100.00;99508.88;5082652;28;20048;-63
2023/05/23 05:07:08;;;;;;;19.25;12.50;;;;;;;13.63;100.00;99507.38;5083799;28;20346;-64
2023/05/23 05:09:37;;;;;;;16.73;11.70;;;;;;;13.55;100.00;99519.41;5093373;28;20523;-63
2023/05/23 05:12:04;;;;;;;13.77;10.40;;;;;;;13.49;100.00;99516.91;5094688;28;20048;-64
2023/05/23 05:14:31;;;;;;;28.65;11.43;;;;;;;13.42;100.00;99521.69;5096336;28;20076;-63
2023/05/23 05:16:58;;;;;;;19.77;10.20;;;;;;;13.38;100.00;99516.00;5099610;28;20051;-63
2023/05/23 05:19:34;;;;;;;15.90;9.80;;;;;;;13.33;100.00;99511.38;5083654;28;20088;-63
2023/05/23 05:22:10;;;;;;;14.60;8.95;;;;;;;13.27;100.00;99519.66;5100513;28;20126;-63
2023/05/23 05:24:40;;;;;;;15.80;8.93;;;;;;;13.29;100.00;99522.91;5083963;28;20050;-63
2023/05/23 05:27:10;;;;;;;16.55;8.93;;;;;;;13.54;100.00;99535.81;5094888;28;20516;-62
2023/05/23 05:29:37;;;;;;;12.65;8.15;;;;;;;13.69;100.00;99525.19;5087446;28;20044;-62
2023/05/23 05:32:07;;;;;;;20.13;8.30;;;;;;;13.55;100.00;99532.03;5096685;28;20499;-62
2023/05/23 05:34:36;;;;;;;15.98;7.72;;;;;;;13.32;100.00;99523.19;5082579;28;20408;-62
2023/05/23 05:37:04;;;;;;;14.70;8.05;;;;;;;13.30;100.00;99527.22;5086237;28;20067;-62
2023/05/23 05:39:33;;;;;;;12.43;7.60;;;;;;;13.36;100.00;99532.41;5074531;28;20428;-63
2023/05/23 05:42:03;;;;;;;16.20;8.27;;;;;;;13.35;100.00;99530.78;5100211;28;20040;-62
2023/05/23 05:44:30;;;;;;;14.23;7.72;;;;;;;13.27;100.00;99533.09;5079304;28;20079;-63
2023/05/23 05:46:57;;;;;;;17.35;9.27;;;;;;;13.30;100.00;99529.91;5077678;28;20115;-62
2023/05/23 05:49:25;;;;;;;12.70;8.57;;;;;;;13.42;100.00;99535.94;5075525;28;20407;-62
2023/05/23 05:51:53;;;;;;;16.25;9.07;;;;;;;13.45;100.00;99537.31;5078748;28;20062;-63
2023/05/23 05:54:20;;;;;;;16.63;9.23;;;;;;;13.32;100.00;99533.16;5086278;28;20043;-62
2023/05/23 05:56:47;;;;;;;13.73;9.02;;;;;;;13.26;100.00;99543.03;5098445;28;20509;-61
2023/05/23 05:59:16;;;;;;;12.95;8.38;;;;;;;13.29;100.00;99544.44;5075585;28;20028;-62
2023/05/23 06:01:44;;;;;;;14.02;7.63;;;;;;;13.24;100.00;99547.03;5084704;28;20044;-61
2023/05/23 06:04:12;;;;;;;13.07;8.52;;;;;;;13.26;100.00;99544.91;5076007;28;20058;-61
2023/05/23 06:06:40;;;;;;;16.92;9.35;;;;;;;13.26;100.00;99550.31;5100400;28;21630;-61
2023/05/23 06:09:09;;;;;;;13.77;8.75;;;;;;;13.33;100.00;99545.56;5080435;28;20509;-62
2023/05/23 06:11:38;;;;;;;16.20;10.15;;;;;;;13.25;100.00;99540.59;5080857;28;20051;-63
2023/05/23 06:14:05;;;;;;;19.50;10.43;;;;;;;13.32;100.00;99543.94;5086137;28;20048;-63
2023/05/23 06:16:33;;;;;;;16.60;11.02;;;;;;;13.22;100.00;99544.59;5080754;28;20371;-61
2023/05/23 06:19:00;;;;;;;19.17;11.05;;;;;;;13.25;100.00;99551.34;5086298;28;20044;-63
2023/05/23 06:21:30;;;;;;;16.33;11.95;;;;;;;13.27;100.00;99554.63;5081278;28;20043;-61
2023/05/23 06:23:57;;;;;;;16.65;11.93;;;;;;;13.15;100.00;99533.19;5086881;28;20126;-63
2023/05/23 06:26:25;;;;;;;19.15;11.40;;;;;;;13.21;100.00;99559.13;5084380;28;20043;-63
2023/05/23 06:28:53;;;;;;;19.27;12.63;;;;;;;13.12;100.00;99561.44;5077647;28;20063;-62
2023/05/23 06:31:20;;;;;;;20.25;12.02;;;;;;;13.12;100.00;99550.66;5093363;28;20059;-64
2023/05/23 06:33:48;;;;;;;16.67;12.65;;;;;;;13.08;100.00;99549.56;5099056;28;20130;-63
2023/05/23 06:36:17;;;;;;;27.65;13.13;;;;;;;13.12;100.00;99557.94;5107857;28;20043;-63
2023/05/23 06:38:44;;;;;;;20.63;13.20;;;;;;;13.33;100.00;99557.16;5104601;28;20193;-63
2023/05/23 06:41:11;;;;;;;19.88;12.52;;;;;;;13.20;100.00;99553.97;5102998;28;20044;-63
2023/05/23 06:43:38;;;;;;;18.20;13.05;;;;;;;13.26;100.00;99556.50;5081950;28;20406;-63
2023/05/23 06:46:35;;;;;;;20.00;12.43;;;;;;;13.36;100.00;99564.72;5094159;28;20405;-63
2023/05/23 06:49:03;;;;;;;21.02;12.20;;;;;;;13.28;100.00;99564.31;5103974;28;20118;-63
2023/05/23 06:51:31;;;;;;;19.58;11.40;;;;;;;13.16;100.00;99561.75;5074067;28;20075;-63
2023/05/23 06:54:01;;;;;;;17.90;11.65;;;;;;;13.33;100.00;99554.44;5085237;28;20092;-63
2023/05/23 06:56:28;;;;;;;19.50;11.07;;;;;;;13.32;100.00;99565.47;5086792;28;20135;-63
2023/05/23 06:58:58;;;;;;;27.35;12.23;;;;;;;13.34;100.00;99566.84;5090214;28;20040;-63
2023/05/23 07:01:26;;;;;;;21.90;12.23;;;;;;;13.34;100.00;99566.84;5084741;28;20048;-63
2023/05/23 07:03:54;;;;;;;19.60;12.73;;;;;;;13.42;100.00;99565.56;5082965;28;20040;-63
2023/05/23 07:06:23;;;;;;;21.33;12.57;;;;;;;13.49;100.00;99570.75;5090053;28;20111;-63
2023/05/23 07:08:51;;;;;;;19.40;13.03;;;;;;;13.53;100.00;99566.50;5087535;28;20124;-63
2023/05/23 07:11:18;;;;;;;22.70;15.13;;;;;;;13.48;100.00;99563.75;5084201;28;20336;-63
2023/05/23 07:13:51;;;;;;;34.42;14.35;;;;;;;13.58;100.00;99559.28;5085917;28;20046;-63
2023/05/23 07:16:29;;;;;;;36.13;16.85;;;;;;;13.73;100.00;99572.09;5103092;28;20042;-63
2023/05/23 07:19:04;;;;;;;23.52;15.88;;;;;;;13.79;100.00;99562.97;5084207;28;20039;-62
2023/05/23 07:21:34;;;;;;;25.85;15.88;;;;;;;13.82;100.00;99570.53;5076459;28;20397;-62
2023/05/23 07:24:03;;;;;;;22.15;14.90;;;;;;;13.75;100.00;99575.34;5075782;28;20040;-63
2023/05/23 07:26:33;;;;;;;21.48;15.05;;;;;;;13.73;100.00;99573.97;5085661;28;20136;-62
2023/05/23 07:29:00;;;;;;;26.08;15.35;;;;;;;13.79;100.00;99581.03;5101913;28;20040;-63
2023/05/23 07:31:27;;;;;;;28.60;15.07;;;;;;;13.67;100.00;99578.50;5089184;28;20043;-62
2023/05/23 07:33:58;;;;;;;27.42;15.43;;;;;;;13.62;100.00;99570.34;5085683;28;20174;-62
2023/05/23 07:36:32;;;;;;;25.48;15.20;;;;;;;13.62;100.00;99574.94;5088506;28;20048;-62
2023/05/23 07:39:02;;;;;;;25.05;15.50;;;;;;;13.58;100.00;99580.84;5089631;28;20043;-63
2023/05/23 07:41:29;;;;;;;28.48;16.20;;;;;;;13.54;100.00;99578.91;5078237;28;20117;-62
2023/05/23 07:43:56;;;;;;;29.50;16.98;;;;;;;13.64;100.00;99588.97;5101191;28;20064;-62
2023/05/23 07:46:23;;;;;;;22.25;15.13;;;;;;;13.53;100.00;99594.25;5099128;28;20069;-62
2023/05/23 07:48:51;;;;;;;23.15;15.82;;;;;;;13.73;100.00;99590.16;5098307;28;20058;-63
2023/05/23 07:51:20;;;;;;;29.75;16.00;;;;;;;13.65;100.00;99588.69;5056963;28;20051;-63
2023/05/23 07:53:48;;;;;;;26.50;16.55;;;;;;;14.08;100.00;99608.53;5087597;28;20494;-62
2023/05/23 07:56:17;;;;;;;22.65;14.65;;;;;;;13.98;100.00;99600.34;5083960;28;20040;-62
2023/05/23 07:58:46;;;;;;;28.75;15.73;;;;;;;14.09;100.00;99598.56;5100384;28;20040;-64
2023/05/23 08:01:14;;;;;;;25.97;15.07;;;;;;;14.22;100.00;99596.22;5082580;28;20040;-62
2023/05/23 08:03:59;;;;;;;23.65;14.95;;;;;;;14.17;100.00;99593.50;5097377;28;20035;-62
2023/05/23 08:06:32;;;;;;;22.58;14.23;;;;;;;14.05;100.00;99605.50;5085341;28;20051;-62
2023/05/23 08:09:01;;;;;;;;;;;;;;;14.12;100.00;99616.91;5086536;28;20103;-62
2023/05/23 08:11:50;;;;;;;24.20;13.05;;;;;;;14.13;100.00;99613.16;5097035;28;19934;-63
2023/05/23 08:14:18;;;;;;;23.97;12.40;;;;;;;14.28;100.00;99609.75;5085010;28;20044;-63
2023/05/23 08:16:55;;;;;;;22.25;12.90;;;;;;;14.16;100.00;99612.63;5088699;28;20039;-64
2023/05/23 08:19:25;;;;;;;20.55;12.98;;;;;;;14.09;100.00;99617.41;5081598;28;20544;-62
2023/05/23 08:21:53;;;;;;;22.95;13.38;;;;;;;14.23;100.00;99624.03;5101719;28;20577;-61
2023/05/23 08:24:20;;;;;;;22.67;14.02;;;;;;;13.98;100.00;99622.72;5099330;28;20092;-62
2023/05/23 08:26:47;;;;;;;22.42;14.18;;;;;;;13.91;100.00;99622.09;5104270;28;20485;-62
2023/05/23 08:29:17;;;;;;;21.75;13.80;;;;;;;13.93;100.00;99629.94;5078755;28;20391;-62
2023/05/23 08:31:45;;;;;;;23.85;14.05;;;;;;;13.85;100.00;99623.09;5088075;28;20035;-62
2023/05/23 08:34:13;;;;;;;21.25;14.20;;;;;;;13.81;100.00;99627.41;5088473;28;20334;-62
2023/05/23 08:36:41;;;;;;;21.00;15.52;;;;;;;13.83;100.00;99636.03;5082689;28;20051;-62
2023/05/23 08:39:12;;;;;;;24.35;15.02;;;;;;;13.76;100.00;99635.44;5088213;28;20413;-62
2023/05/23 08:41:45;;;;;;;22.90;14.05;;;;;;;13.79;100.00;99629.53;5081139;28;20105;-62
2023/05/23 08:44:13;;;;;;;22.65;14.60;;;;;;;13.76;100.00;99635.44;5087344;28;20043;-62
2023/05/23 08:46:49;;;;;;;25.08;15.73;;;;;;;13.65;100.00;99633.69;5079906;28;20444;-62
2023/05/23 08:49:31;;;;;;;21.60;14.32;;;;;;;13.54;100.00;99638.94;5086128;28;20048;-62
2023/05/23 08:52:02;;;;;;;24.58;14.30;;;;;;;13.54;100.00;99638.16;5085701;28;20068;-62
2023/05/23 08:54:31;;;;;;;23.85;14.85;;;;;;;13.69;100.00;99630.22;5074031;28;20064;-62
2023/05/23 08:56:58;;;;;;;24.98;15.90;;;;;;;13.63;100.00;99630.41;5087773;27;20044;-62
2023/05/23 08:59:26;;;;;;;23.50;15.77;;;;;;;13.51;100.00;99644.03;5082372;28;20039;-62
2023/05/23 09:01:55;;;;;;;19.10;14.52;;;;;;;13.68;100.00;99647.47;5096749;28;20044;-62
2023/05/23 09:04:22;;;;;;;23.85;14.27;;;;;;;13.56;100.00;99652.97;5093519;28;20043;-62
2023/05/23 09:06:59;;;;;;;21.65;13.95;;;;;;;13.71;100.00;99644.25;5088190;28;20039;-62
2023/05/23 09:09:26;;;;;;;20.52;12.80;;;;;;;13.95;100.00;99650.19;5078840;28;20054;-62
2023/05/23 09:11:54;;;;;;;17.65;13.55;;;;;;;14.16;100.00;99644.97;5103660;28;20135;-62
2023/05/23 09:14:21;;;;;;;16.15;13.00;;;;;;;14.19;100.00;99652.56;5078643;28;20433;-62
2023/05/23 09:16:51;;;;;;;22.33;12.80;;;;;;;14.04;100.00;99642.44;5078078;28;20564;-62
2023/05/23 09:19:23;;;;;;;17.58;12.23;;;;;;;14.27;99.70;99643.19;5080507;28;20868;-64
2023/05/23 09:21:56;;;;;;;16.85;12.75;;;;;;;14.28;99.88;99634.00;5078272;28;20051;-62
2023/05/23 09:24:35;;;;;;;20.70;13.30;;;;;;;14.18;99.52;99642.84;5082522;28;20050;-62
2023/05/23 09:27:05;;;;;;;20.65;12.50;;;;;;;14.03;99.96;99636.25;5085864;28;20130;-62
2023/05/23 09:29:33;;;;;;;17.50;12.07;;;;;;;14.24;99.86;99642.63;5087251;28;20501;-62
2023/05/23 09:32:00;;;;;;;19.70;12.32;;;;;;;14.43;98.25;99651.16;5087259;28;20122;-62
2023/05/23 09:34:31;;;;;;;22.10;12.70;;;;;;;14.45;97.73;99648.16;5083243;28;20044;-62
2023/05/23 09:36:58;;;;;;;20.05;12.38;;;;;;;14.48;97.63;99646.84;5095956;28;20394;-62
2023/05/23 09:39:25;;;;;;;19.52;11.65;;;;;;;14.57;97.31;99648.84;5100329;28;20035;-62
2023/05/23 09:41:52;;;;;;;18.25;12.48;;;;;;;14.49;95.81;99651.19;5074950;28;20127;-63
2023/05/23 09:44:23;;;;;;;17.05;11.88;;;;;;;14.54;96.53;99652.06;5094375;28;20126;-63
2023/05/23 09:46:51;;;;;;;;;;;;;;;14.55;95.70;99652.88;5098415;28;20035;-61
2023/05/23 09:49:21;;;;;;;18.13;12.75;;;;;;;14.65;96.21;99642.16;5083436;28;19935;-61
2023/05/23 09:52:00;;;;;;;21.13;12.88;;;;;;;14.66;95.45;99649.19;5080099;28;20071;-63
2023/05/23 09:54:27;;;;;;;18.67;11.85;;;;;;;14.68;95.95;99657.84;5100199;28;20435;-62
2023/05/23 09:56:55;;;;;;;29.73;12.55;;;;;;;14.87;94.71;99647.44;5097222;28;20044;-62
2023/05/23 09:59:24;;;;;;;18.23;10.32;;;;;;;14.84;93.14;99662.25;5099180;28;20148;-61
2023/05/23 10:01:51;;;;;;;26.05;11.73;;;;;;;14.91;92.53;99661.22;5096953;28;20050;-63
2023/05/23 10:04:19;;;;;;;19.25;11.95;;;;;;;14.70;94.14;99661.06;5096245;28;20868;-63
2023/05/23 10:06:50;;;;;;;19.23;11.55;;;;;;;14.72;93.91;99667.03;5097003;28;20036;-63
2023/05/23 10:09:19;;;;;;;25.58;13.38;;;;;;;14.52;92.33;99667.66;5081064;28;20474;-63
2023/05/23 10:12:34;;;;;;;22.45;13.10;;;;;;;14.50;91.12;99677.88;5083121;28;20506;-62
2023/05/23 10:15:02;;;;;;;20.70;12.40;;;;;;;14.57;90.66;99667.72;5064565;28;20500;-63
2023/05/23 10:17:44;;;;;;;15.93;11.27;;;;;;;14.64;91.13;99672.91;5079692;28;20048;-63
2023/05/23 10:20:12;;;;;;;21.92;12.90;;;;;;;15.18;88.67;99672.72;5077490;28;20033;-63
2023/05/23 10:22:39;;;;;;;20.02;11.85;;;;;;;15.19;87.87;99663.53;5074452;28;20051;-63
2023/05/23 10:25:09;;;;;;;23.77;12.30;;;;;;;15.46;87.58;99663.41;5080567;28;20123;-63
2023/05/23 10:27:36;;;;;;;17.52;12.18;;;;;;;15.47;88.43;99670.41;5079543;28;20067;-63
2023/05/23 10:30:05;;;;;;;17.02;11.57;;;;;;;15.24;90.12;99671.66;5073748;28;20082;-63
2023/05/23 10:32:32;;;;;;;17.35;12.52;;;;;;;15.35;90.39;99671.72;5075539;28;20063;-63
2023/05/23 10:35:01;;;;;;;16.27;11.63;;;;;;;15.42;89.54;99669.59;5078481;28;20115;-63
2023/05/23 10:37:31;;;;;;;23.65;12.15;;;;;;;15.55;87.41;99669.13;5083248;28;20059;-63
2023/05/23 10:40:01;;;;;;;21.52;11.20;;;;;;;15.47;88.71;99670.41;5083570;28;20040;-63
2023/05/23 10:42:34;;;;;;;14.55;9.32;;;;;;;15.17;89.41;99678.38;5076050;28;20044;-61
2023/05/23 10:45:20;;;;;;;16.35;9.75;;;;;;;14.94;90.72;99668.81;5082708;28;20051;-61
2023/05/23 10:47:47;;;;;;;16.15;9.88;;;;;;;14.80;92.81;99688.16;5078688;28;20048;-64
2023/05/23 10:50:32;;;;;;;16.38;10.75;;;;;;;14.60;94.46;99693.38;5077664;28;20047;-64
2023/05/23 10:53:00;;;;;;;20.52;11.18;;;;;;;14.25;97.53;99700.03;5074366;28;20029;-63
2023/05/23 10:55:27;;;;;;;19.13;12.90;;;;;;;13.90;97.85;99704.00;5080463;28;20053;-63
2023/05/23 10:58:12;;;;;;;22.23;12.57;;;;;;;13.74;100.00;99710.28;5071883;28;22306;-62
2023/05/23 11:00:39;;;;;;;23.75;12.52;;;;;;;14.01;99.94;99703.06;5078972;28;20502;-63
2023/05/23 11:03:07;;;;;;;22.45;11.80;;;;;;;13.85;99.39;99709.31;5075353;28;20115;-62
2023/05/23 11:05:37;;;;;;;21.75;12.10;;;;;;;13.84;99.93;99723.88;5082469;28;20035;-62
2023/05/23 11:08:09;;;;;;;18.88;12.57;;;;;;;13.83;100.00;99716.88;5078234;28;20063;-63
2023/05/23 11:10:55;;;;;;;25.90;13.45;;;;;;;13.88;98.83;99716.94;5095435;28;20404;-63
2023/05/23 11:13:23;;;;;;;20.27;12.27;;;;;;;14.22;96.94;99719.44;5097496;28;20078;-62
2023/05/23 11:15:50;;;;;;;19.20;12.23;;;;;;;14.23;96.71;99712.97;5081815;28;20127;-63
2023/05/23 11:18:21;;;;;;;19.58;11.93;;;;;;;14.03;98.15;99717.09;5097080;28;20094;-61
2023/05/23 11:20:49;;;;;;;21.48;11.73;;;;;;;14.20;97.36;99716.16;5082010;28;20130;-63
2023/05/23 11:23:16;;;;;;;25.63;12.98;;;;;;;14.06;98.27;99713.06;5096133;28;20048;-63